Time;durP1;ratioP1;P1;durP2;ratioP2;P2;SDS_P1;SDS_P2;PMS_P1;PMS_P2;Temp;Humidity;BMP_temperature;BMP_pressure;BME280_temperature;BME280_humidity;BME280_pressure;Samples;Min_cycle;Max_cycle;Signal;HPM_P1;HPM_P2
2023/05/05 00:00:45;;;;;;;4.87;4.10;;;;;;;;;;5052243;28;20282;-73
2023/05/05 00:03:11;;;;;;;5.10;4.57;;;;;;;;;;5049002;28;20191;-73
2023/05/05 00:05:36;;;;;;;4.80;4.40;;;;;;;;;;5047686;28;20179;-74
2023/05/05 00:08:02;;;;;;;4.53;4.20;;;;;;;;;;5043671;28;20184;-73
2023/05/05 00:10:27;;;;;;;7.67;4.20;;;;;;;;;;5046412;28;20200;-73
2023/05/05 00:12:52;;;;;;;4.50;4.10;;;;;;;;;;5036245;28;20184;-74
2023/05/05 00:15:17;;;;;;;4.67;4.07;;;;;;;;;;5045474;28;20199;-73
2023/05/05 00:17:43;;;;;;;4.40;4.10;;;;;;;;;;5040332;28;20217;-73
2023/05/05 00:20:08;;;;;;;4.73;4.43;;;;;;;;;;5048243;28;20182;-73
2023/05/05 00:22:33;;;;;;;4.47;4.07;;;;;;;;;;5045152;28;20182;-74
2023/05/05 00:24:59;;;;;;;4.57;4.17;;;;;;;;;;5056798;28;20195;-73
2023/05/05 00:27:24;;;;;;;5.10;4.37;;;;;;;;;;5061209;28;20242;-74
2023/05/05 00:29:50;;;;;;;4.60;4.20;;;;;;;;;;5047438;28;20223;-73
2023/05/05 00:32:15;;;;;;;4.47;4.13;;;;;;;;;;5042165;28;20182;-73
2023/05/05 00:34:40;;;;;;;5.67;4.57;;;;;;;;;;5046393;28;20207;-73
2023/05/05 00:37:06;;;;;;;4.33;3.93;;;;;;;;;;5044277;28;20215;-73
2023/05/05 00:39:32;;;;;;;4.70;4.17;;;;;;;;;;5045780;28;20176;-74
2023/05/05 00:41:58;;;;;;;4.70;4.30;;;;;;;;;;5048397;28;20180;-74
2023/05/05 00:44:40;;;;;;;5.20;4.70;;;;;;;;;;5043247;28;20179;-74
2023/05/05 00:47:06;;;;;;;4.83;3.90;;;;;;;;;;5041410;28;20183;-73
2023/05/05 00:49:32;;;;;;;4.67;4.23;;;;;;;;;;5057173;28;20184;-73
2023/05/05 00:51:58;;;;;;;4.23;3.83;;;;;;;;;;5037264;28;20189;-73
2023/05/05 00:54:23;;;;;;;4.77;4.27;;;;;;;;;;5046521;28;20269;-73
2023/05/05 00:56:49;;;;;;;4.10;3.70;;;;;;;;;;5047589;28;20315;-73
2023/05/05 00:59:15;;;;;;;4.30;3.90;;;;;;;;;;5043914;28;20185;-73
2023/05/05 01:01:40;;;;;;;5.73;4.00;;;;;;;;;;5036429;28;20188;-73
2023/05/05 01:04:05;;;;;;;5.47;4.00;;;;;;;;;;5045251;28;20219;-73
2023/05/05 01:06:31;;;;;;;3.43;3.23;;;;;;;;;;5048100;28;20182;-73
2023/05/05 01:09:00;;;;;;;4.30;3.90;;;;;;;;;;5041756;28;20184;-73
2023/05/05 01:11:31;;;;;;;5.10;4.20;;;;;;;;;;5041391;28;20179;-73
2023/05/05 01:14:04;;;;;;;3.70;3.40;;;;;;;;;;5058189;28;20180;-73
2023/05/05 01:16:32;;;;;;;5.10;4.10;;;;;;;;;;5051220;28;20199;-73
2023/05/05 01:19:02;;;;;;;4.10;3.80;;;;;;;;;;5044827;28;20177;-73
2023/05/05 01:21:30;;;;;;;4.43;4.03;;;;;;;;;;5060226;28;20215;-73
2023/05/05 01:24:05;;;;;;;4.13;3.60;;;;;;;;;;5064643;28;20191;-73
2023/05/05 01:26:43;;;;;;;4.30;3.90;;;;;;;;;;5054048;28;20208;-73
2023/05/05 01:29:17;;;;;;;3.93;3.60;;;;;;;;;;5051054;28;20198;-73
2023/05/05 01:31:50;;;;;;;3.67;3.37;;;;;;;;;;5044819;28;20183;-73
2023/05/05 01:34:18;;;;;;;3.90;3.60;;;;;;;;;;5044950;28;20179;-73
2023/05/05 01:36:45;;;;;;;3.90;3.60;;;;;;;;;;5043588;28;20207;-73
2023/05/05 01:39:13;;;;;;;7.00;3.67;;;;;;;;;;5033752;28;20184;-73
2023/05/05 01:41:40;;;;;;;4.60;3.93;;;;;;;;;;5046623;28;20202;-73
2023/05/05 01:44:06;;;;;;;5.00;4.10;;;;;;;;;;5038330;28;20175;-73
2023/05/05 01:46:33;;;;;;;4.20;3.70;;;;;;;;;;5042700;28;20180;-73
2023/05/05 01:48:58;;;;;;;5.47;4.77;;;;;;;;;;5037794;28;20179;-74
2023/05/05 01:51:25;;;;;;;4.10;3.57;;;;;;;;;;5044536;28;20180;-73
2023/05/05 01:53:51;;;;;;;3.63;3.20;;;;;;;;;;5043915;28;20270;-73
2023/05/05 01:56:17;;;;;;;7.87;4.23;;;;;;;;;;5038389;28;20300;-73
2023/05/05 01:58:43;;;;;;;5.30;3.90;;;;;;;;;;5050799;28;20180;-73
2023/05/05 02:01:09;;;;;;;4.10;3.80;;;;;;;;;;5043702;28;20183;-73
2023/05/05 02:03:36;;;;;;;3.67;3.37;;;;;;;;;;5043858;28;20187;-73
2023/05/05 02:06:01;;;;;;;4.20;3.90;;;;;;;;;;5048867;28;20180;-73
2023/05/05 02:08:27;;;;;;;4.37;3.97;;;;;;;;;;5040935;28;20183;-73
2023/05/05 02:10:53;;;;;;;5.80;3.93;;;;;;;;;;5043197;28;20184;-73
2023/05/05 02:13:19;;;;;;;4.40;4.00;;;;;;;;;;5047039;28;20182;-73
2023/05/05 02:15:44;;;;;;;4.97;4.47;;;;;;;;;;5038254;28;20196;-73
2023/05/05 02:18:09;;;;;;;5.73;3.93;;;;;;;;;;5039352;28;20181;-73
2023/05/05 02:20:36;;;;;;;4.40;4.00;;;;;;;;;;5042660;28;20242;-73
2023/05/05 02:23:04;;;;;;;3.63;3.33;;;;;;;;;;5041503;28;20181;-73
2023/05/05 02:25:34;;;;;;;7.57;4.20;;;;;;;;;;5036540;28;20196;-73
2023/05/05 02:27:59;;;;;;;5.17;3.37;;;;;;;;;;5035451;28;20188;-73
2023/05/05 02:30:26;;;;;;;4.90;4.00;;;;;;;;;;5040756;28;20234;-74
2023/05/05 02:32:57;;;;;;;4.73;4.33;;;;;;;;;;5050518;28;20219;-73
2023/05/05 02:35:26;;;;;;;4.43;4.13;;;;;;;;;;5064695;28;20205;-73
2023/05/05 02:37:58;;;;;;;6.87;4.20;;;;;;;;;;5046473;28;20225;-73
2023/05/05 02:40:25;;;;;;;5.07;4.67;;;;;;;;;;5048617;28;20174;-73
2023/05/05 02:42:53;;;;;;;4.53;4.13;;;;;;;;;;5045233;28;20178;-73
2023/05/05 02:45:20;;;;;;;6.20;4.57;;;;;;;;;;5059915;28;20188;-73
2023/05/05 02:47:45;;;;;;;4.60;4.20;;;;;;;;;;5042507;28;20194;-73
2023/05/05 02:50:10;;;;;;;4.27;3.87;;;;;;;;;;5043236;28;20278;-74
2023/05/05 02:52:36;;;;;;;4.70;4.30;;;;;;;;;;5040679;28;20184;-73
2023/05/05 02:55:02;;;;;;;5.47;4.60;;;;;;;;;;5043718;28;20176;-73
2023/05/05 02:57:34;;;;;;;4.93;4.33;;;;;;;;;;5043220;28;20217;-73
2023/05/05 02:59:59;;;;;;;4.80;3.77;;;;;;;;;;5046320;28;20176;-73
2023/05/05 03:02:47;;;;;;;6.00;4.00;;;;;;;;;;5042746;28;20199;-73
2023/05/05 03:05:17;;;;;;;8.60;5.57;;;;;;;;;;5043809;28;20176;-73
2023/05/05 03:07:53;;;;;;;5.30;4.00;;;;;;;;;;5052705;28;20175;-73
2023/05/05 03:10:20;;;;;;;5.07;4.50;;;;;;;;;;5042528;28;20194;-73
2023/05/05 03:12:48;;;;;;;4.30;3.90;;;;;;;;;;5036496;28;20194;-73
2023/05/05 03:15:14;;;;;;;4.70;3.90;;;;;;;;;;5038413;28;20227;-73
2023/05/05 03:17:40;;;;;;;4.00;3.60;;;;;;;;;;5038681;28;20174;-73
2023/05/05 03:20:06;;;;;;;4.80;3.73;;;;;;;;;;5035155;28;20178;-73
2023/05/05 03:22:34;;;;;;;4.17;3.80;;;;;;;;;;5039265;28;20176;-73
2023/05/05 03:25:00;;;;;;;4.60;3.30;;;;;;;;;;5040969;28;20203;-73
2023/05/05 03:27:25;;;;;;;3.90;3.53;;;;;;;;;;5044923;28;20215;-74
2023/05/05 03:29:50;;;;;;;3.73;3.20;;;;;;;;;;5037245;28;20265;-73
2023/05/05 03:32:15;;;;;;;4.80;3.50;;;;;;;;;;5041891;28;20180;-73
2023/05/05 03:34:41;;;;;;;4.03;3.23;;;;;;;;;;5040415;28;20192;-73
2023/05/05 03:37:06;;;;;;;4.27;3.23;;;;;;;;;;5044170;28;20298;-73
2023/05/05 03:39:31;;;;;;;7.03;3.67;;;;;;;;;;5041964;28;20201;-73
2023/05/05 03:41:56;;;;;;;3.83;3.47;;;;;;;;;;5041559;28;20168;-73
2023/05/05 03:44:21;;;;;;;3.97;3.47;;;;;;;;;;5039730;28;20190;-74
2023/05/05 03:46:47;;;;;;;4.90;3.70;;;;;;;;;;5040640;28;20182;-73
2023/05/05 03:49:12;;;;;;;3.43;3.13;;;;;;;;;;5038282;28;20229;-73
2023/05/05 03:51:37;;;;;;;3.67;3.37;;;;;;;;;;5043831;28;20214;-73
2023/05/05 03:54:02;;;;;;;3.80;3.50;;;;;;;;;;5041191;28;20307;-73
2023/05/05 03:56:27;;;;;;;4.87;3.60;;;;;;;;;;5051937;28;20203;-73
2023/05/05 03:58:53;;;;;;;3.60;3.00;;;;;;;;;;5048797;28;20179;-73
2023/05/05 04:01:18;;;;;;;3.60;3.30;;;;;;;;;;5039487;28;20191;-73
2023/05/05 04:03:43;;;;;;;3.50;3.20;;;;;;;;;;5046891;28;20195;-73
2023/05/05 04:06:08;;;;;;;3.87;3.17;;;;;;;;;;5046806;28;20272;-73
2023/05/05 04:08:33;;;;;;;3.33;3.03;;;;;;;;;;5044841;28;20210;-73
2023/05/05 04:11:01;;;;;;;4.90;3.30;;;;;;;;;;5037945;28;20183;-73
2023/05/05 04:13:26;;;;;;;3.33;3.03;;;;;;;;;;5047641;28;20214;-73
2023/05/05 04:15:51;;;;;;;4.63;3.23;;;;;;;;;;5041882;28;20248;-73
2023/05/05 04:18:17;;;;;;;2.93;2.67;;;;;;;;;;5043669;28;20224;-73
2023/05/05 04:20:42;;;;;;;4.17;3.43;;;;;;;;;;5041524;28;20200;-73
2023/05/05 04:23:07;;;;;;;4.70;3.93;;;;;;;;;;5042012;28;20186;-73
2023/05/05 04:25:32;;;;;;;3.77;3.43;;;;;;;;;;5045046;28;20182;-73
2023/05/05 04:27:57;;;;;;;4.13;3.30;;;;;;;;;;5049509;28;20201;-73
2023/05/05 04:30:23;;;;;;;3.70;3.40;;;;;;;;;;5051797;28;20223;-74
2023/05/05 04:32:48;;;;;;;4.90;3.03;;;;;;;;;;5045175;28;20188;-74
2023/05/05 04:35:13;;;;;;;3.47;3.20;;;;;;;;;;5042929;28;20310;-74
2023/05/05 04:37:38;;;;;;;3.50;3.20;;;;;;;;;;5050004;28;20178;-74
2023/05/05 04:40:04;;;;;;;4.13;3.03;;;;;;;;;;5048701;28;20233;-74
2023/05/05 04:42:29;;;;;;;3.47;3.17;;;;;;;;;;5049898;28;20272;-74
2023/05/05 04:44:54;;;;;;;3.80;3.50;;;;;;;;;;5053481;28;20182;-74
2023/05/05 04:47:20;;;;;;;4.23;3.13;;;;;;;;;;5037970;28;20189;-74
2023/05/05 04:49:45;;;;;;;3.90;3.50;;;;;;;;;;5046322;28;20178;-73
2023/05/05 04:52:13;;;;;;;3.70;3.40;;;;;;;;;;5041602;28;20179;-74
2023/05/05 04:54:38;;;;;;;3.80;3.17;;;;;;;;;;5035821;28;20194;-74
2023/05/05 04:57:03;;;;;;;5.27;3.50;;;;;;;;;;5039874;28;20210;-74
2023/05/05 04:59:29;;;;;;;4.30;3.13;;;;;;;;;;5046646;28;20183;-74
2023/05/05 05:01:54;;;;;;;3.50;3.20;;;;;;;;;;5041468;28;20170;-74
2023/05/05 05:04:21;;;;;;;3.57;3.27;;;;;;;;;;5040636;28;20228;-75
2023/05/05 05:06:46;;;;;;;3.33;3.03;;;;;;;;;;5047640;28;20200;-74
2023/05/05 05:09:11;;;;;;;3.30;3.00;;;;;;;;;;5043060;28;20202;-74
2023/05/05 05:11:36;;;;;;;2.93;2.73;;;;;;;;;;5041916;28;20183;-74
2023/05/05 05:14:01;;;;;;;3.57;3.03;;;;;;;;;;5044526;28;20210;-74
2023/05/05 05:16:27;;;;;;;2.93;2.73;;;;;;;;;;5048986;28;20206;-74
2023/05/05 05:18:52;;;;;;;3.77;2.77;;;;;;;;;;5047821;28;20182;-74
2023/05/05 05:21:17;;;;;;;3.33;3.00;;;;;;;;;;5039374;28;20182;-74
2023/05/05 05:23:42;;;;;;;2.80;2.60;;;;;;;;;;5044626;28;20180;-74
2023/05/05 05:26:07;;;;;;;3.50;3.20;;;;;;;;;;5037079;28;20257;-74
2023/05/05 05:28:33;;;;;;;3.33;2.70;;;;;;;;;;5038775;28;20227;-74
2023/05/05 05:30:58;;;;;;;5.10;3.17;;;;;;;;;;5046256;28;20227;-74
2023/05/05 05:33:23;;;;;;;3.93;3.53;;;;;;;;;;5042468;28;20182;-74
2023/05/05 05:35:48;;;;;;;2.97;2.77;;;;;;;;;;5045968;28;20190;-74
2023/05/05 05:38:14;;;;;;;2.80;2.60;;;;;;;;;;5056905;28;20172;-74
2023/05/05 05:40:39;;;;;;;4.53;2.80;;;;;;;;;;5032677;28;20188;-74
2023/05/05 05:43:04;;;;;;;3.17;2.80;;;;;;;;;;5046415;28;20184;-74
2023/05/05 05:45:29;;;;;;;3.70;2.97;;;;;;;;;;5046241;28;20234;-74
2023/05/05 05:47:55;;;;;;;3.27;2.27;;;;;;;;;;5037067;28;20212;-74
2023/05/05 05:50:20;;;;;;;3.00;2.53;;;;;;;;;;5044571;28;20212;-74
2023/05/05 05:52:45;;;;;;;3.43;2.60;;;;;;;;;;5041880;28;20212;-74
2023/05/05 05:55:11;;;;;;;2.53;2.17;;;;;;;;;;5038078;28;20190;-74
2023/05/05 05:57:36;;;;;;;2.47;2.27;;;;;;;;;;5045654;28;20222;-74
2023/05/05 06:00:01;;;;;;;2.80;2.60;;;;;;;;;;5049890;28;20170;-74
2023/05/05 06:02:26;;;;;;;2.60;2.40;;;;;;;;;;5046044;28;20227;-74
2023/05/05 06:04:52;;;;;;;4.63;3.40;;;;;;;;;;5046131;28;20207;-74
2023/05/05 06:07:17;;;;;;;2.60;2.40;;;;;;;;;;5039852;28;20175;-74
2023/05/05 06:09:42;;;;;;;2.93;2.57;;;;;;;;;;5040946;28;20181;-74
2023/05/05 06:12:07;;;;;;;2.70;2.47;;;;;;;;;;5042984;28;20242;-74
2023/05/05 06:14:32;;;;;;;2.73;2.43;;;;;;;;;;5045691;28;20185;-74
2023/05/05 06:16:58;;;;;;;3.17;2.23;;;;;;;;;;5040904;28;20228;-74
2023/05/05 06:19:23;;;;;;;4.67;2.80;;;;;;;;;;5045027;28;20179;-74
2023/05/05 06:21:48;;;;;;;3.00;2.63;;;;;;;;;;5043579;28;20245;-74
2023/05/05 06:24:13;;;;;;;3.47;2.30;;;;;;;;;;5036205;28;20202;-74
2023/05/05 06:26:39;;;;;;;3.33;3.03;;;;;;;;;;5042589;28;20186;-74
2023/05/05 06:29:04;;;;;;;2.77;2.57;;;;;;;;;;5041928;28;20190;-74
2023/05/05 06:31:29;;;;;;;2.80;2.60;;;;;;;;;;5035211;28;20200;-74
2023/05/05 06:33:55;;;;;;;3.10;2.57;;;;;;;;;;5043278;28;20191;-74
2023/05/05 06:36:20;;;;;;;4.27;2.43;;;;;;;;;;5035801;28;20204;-74
2023/05/05 06:38:45;;;;;;;2.90;2.70;;;;;;;;;;5045514;28;20188;-74
2023/05/05 06:41:10;;;;;;;2.93;2.63;;;;;;;;;;5043757;28;20188;-74
2023/05/05 06:43:36;;;;;;;2.70;2.50;;;;;;;;;;5044945;28;20178;-74
2023/05/05 06:46:01;;;;;;;4.07;2.37;;;;;;;;;;5039438;28;20180;-74
2023/05/05 06:48:26;;;;;;;3.13;2.33;;;;;;;;;;5050557;28;20182;-74
2023/05/05 06:50:51;;;;;;;3.33;3.00;;;;;;;;;;5043882;28;20192;-74
2023/05/05 06:53:16;;;;;;;3.30;2.70;;;;;;;;;;5040713;28;20179;-74
2023/05/05 06:55:43;;;;;;;4.07;2.40;;;;;;;;;;5043426;28;20200;-74
2023/05/05 06:58:08;;;;;;;8.77;2.60;;;;;;;;;;5047100;28;20185;-74
2023/05/05 07:00:34;;;;;;;3.23;2.80;;;;;;;;;;5040328;28;20177;-74
2023/05/05 07:02:59;;;;;;;3.07;2.77;;;;;;;;;;5044823;28;20204;-74
2023/05/05 07:05:24;;;;;;;3.10;2.60;;;;;;;;;;5042204;28;20174;-74
2023/05/05 07:07:53;;;;;;;2.77;2.57;;;;;;;;;;5037951;28;20183;-74
2023/05/05 07:10:19;;;;;;;2.70;2.50;;;;;;;;;;5042339;28;20237;-74
2023/05/05 07:12:45;;;;;;;4.23;2.90;;;;;;;;;;5037340;28;20180;-74
2023/05/05 07:15:10;;;;;;;4.00;2.70;;;;;;;;;;5040122;28;20180;-74
2023/05/05 07:17:35;;;;;;;2.80;2.57;;;;;;;;;;5047766;28;20169;-74
2023/05/05 07:20:01;;;;;;;3.80;2.40;;;;;;;;;;5047860;28;20267;-74
2023/05/05 07:22:27;;;;;;;5.20;2.87;;;;;;;;;;5047472;28;20236;-74
2023/05/05 07:24:52;;;;;;;2.70;2.23;;;;;;;;;;5043655;28;20227;-74
2023/05/05 07:27:18;;;;;;;2.60;2.30;;;;;;;;;;5040671;28;20280;-74
2023/05/05 07:29:43;;;;;;;3.13;2.33;;;;;;;;;;5055287;28;20236;-74
2023/05/05 07:32:08;;;;;;;5.00;2.33;;;;;;;;;;5053008;28;20284;-74
2023/05/05 07:34:35;;;;;;;2.50;2.30;;;;;;;;;;5052339;28;20199;-74
2023/05/05 07:37:01;;;;;;;2.77;2.57;;;;;;;;;;5050205;28;20213;-74
2023/05/05 07:39:26;;;;;;;2.10;1.90;;;;;;;;;;5045389;28;20179;-74
2023/05/05 07:41:51;;;;;;;2.50;2.30;;;;;;;;;;5051220;28;20174;-74
2023/05/05 07:44:16;;;;;;;2.63;2.43;;;;;;;;;;5044533;28;20231;-74
2023/05/05 07:46:42;;;;;;;2.33;2.13;;;;;;;;;;5052710;28;20195;-74
2023/05/05 07:49:07;;;;;;;4.23;2.63;;;;;;;;;;5047347;28;20201;-74
2023/05/05 07:51:32;;;;;;;2.70;2.43;;;;;;;;;;5043387;28;20213;-75
2023/05/05 07:53:57;;;;;;;3.43;2.40;;;;;;;;;;5041950;28;20188;-74
2023/05/05 07:56:22;;;;;;;2.53;2.33;;;;;;;;;;5053856;28;20276;-74
2023/05/05 07:58:48;;;;;;;3.77;2.40;;;;;;;;;;5051434;28;20233;-77
2023/05/05 08:01:13;;;;;;;3.17;2.00;;;;;;;;;;5051654;28;20204;-77
2023/05/05 08:03:41;;;;;;;2.53;2.33;;;;;;;;;;5045832;28;20244;-84
2023/05/05 08:06:10;;;;;;;4.53;2.97;;;;;;;;;;5046809;28;20174;-90
2023/05/05 08:08:36;;;;;;;3.43;2.77;;;;;;;;;;5063814;28;20223;-87
2023/05/05 08:11:01;;;;;;;2.37;2.17;;;;;;;;;;5049279;28;20178;-87
2023/05/05 08:13:27;;;;;;;2.40;2.20;;;;;;;;;;5048862;28;20193;-84
2023/05/05 08:15:52;;;;;;;2.60;2.40;;;;;;;;;;5052616;28;20216;-84
2023/05/05 08:18:18;;;;;;;2.97;2.50;;;;;;;;;;5055074;28;20237;-79
2023/05/05 08:20:43;;;;;;;2.90;2.10;;;;;;;;;;5048173;28;20278;-83
2023/05/05 08:23:08;;;;;;;2.20;2.00;;;;;;;;;;5065932;28;20178;-82
2023/05/05 08:25:33;;;;;;;4.07;1.90;;;;;;;;;;5044800;28;20197;-83
2023/05/05 08:27:58;;;;;;;4.03;2.10;;;;;;;;;;5044855;28;20253;-82
2023/05/05 08:30:24;;;;;;;2.50;1.90;;;;;;;;;;5042922;28;20234;-83
2023/05/05 08:32:49;;;;;;;2.00;1.80;;;;;;;;;;5049574;28;20189;-81
2023/05/05 08:35:14;;;;;;;2.80;1.70;;;;;;;;;;5029124;28;20181;-80
2023/05/05 08:37:40;;;;;;;2.13;1.93;;;;;;;;;;5054034;28;20238;-84
2023/05/05 08:40:05;;;;;;;2.73;2.00;;;;;;;;;;5052221;28;20190;-88
2023/05/05 08:42:31;;;;;;;2.60;1.90;;;;;;;;;;5040053;28;20186;-84
2023/05/05 08:44:57;;;;;;;2.47;1.60;;;;;;;;;;5039496;28;20175;-82
2023/05/05 08:47:22;;;;;;;3.20;2.33;;;;;;;;;;5053255;28;20182;-83
2023/05/05 08:49:47;;;;;;;1.90;1.80;;;;;;;;;;5048186;28;20181;-83
2023/05/05 08:52:14;;;;;;;3.23;2.10;;;;;;;;;;5047223;28;20174;-74
2023/05/05 08:54:43;;;;;;;3.07;2.57;;;;;;;;;;5048120;28;20183;-74
2023/05/05 08:57:09;;;;;;;2.07;1.97;;;;;;;;;;5062960;28;20230;-74
2023/05/05 08:59:35;;;;;;;2.50;2.13;;;;;;;;;;5050288;28;20259;-74
2023/05/05 09:02:02;;;;;;;2.10;1.90;;;;;;;;;;5060682;28;20186;-74
2023/05/05 09:04:27;;;;;;;3.40;2.13;;;;;;;;;;5049188;28;20178;-74
2023/05/05 09:06:55;;;;;;;5.47;1.97;;;;;;;;;;5043310;28;20181;-75
2023/05/05 09:09:21;;;;;;;4.27;2.47;;;;;;;;;;5043535;28;20191;-74
2023/05/05 09:11:46;;;;;;;2.20;1.87;;;;;;;;;;5047793;28;20187;-74
2023/05/05 09:14:11;;;;;;;2.40;2.20;;;;;;;;;;5061710;28;20245;-74
2023/05/05 09:16:40;;;;;;;3.10;2.27;;;;;;;;;;5044048;28;20255;-75
2023/05/05 09:19:05;;;;;;;2.00;1.90;;;;;;;;;;5047485;28;20263;-74
2023/05/05 09:21:31;;;;;;;3.83;2.27;;;;;;;;;;5057443;28;20258;-74
2023/05/05 09:24:04;;;;;;;2.30;2.10;;;;;;;;;;5046827;28;20197;-75
2023/05/05 09:26:31;;;;;;;2.50;2.30;;;;;;;;;;5047212;28;20181;-74
2023/05/05 09:28:56;;;;;;;2.53;1.90;;;;;;;;;;5052776;28;20226;-75
2023/05/05 09:31:21;;;;;;;3.20;1.90;;;;;;;;;;5041718;28;20246;-74
2023/05/05 09:33:47;;;;;;;2.87;2.20;;;;;;;;;;5047549;28;20191;-74
2023/05/05 09:36:12;;;;;;;2.43;2.00;;;;;;;;;;5042195;28;20237;-74
2023/05/05 09:38:37;;;;;;;2.83;2.53;;;;;;;;;;5045194;28;20204;-74
2023/05/05 09:41:05;;;;;;;1.90;1.80;;;;;;;;;;5043534;28;20204;-74
2023/05/05 09:43:47;;;;;;;23.13;7.63;;;;;;;;;;5051921;28;20183;-74
2023/05/05 09:46:13;;;;;;;3.90;2.27;;;;;;;;;;5040298;28;20270;-74
2023/05/05 09:48:38;;;;;;;2.80;2.40;;;;;;;;;;5048902;28;20265;-74
2023/05/05 09:51:03;;;;;;;2.60;2.07;;;;;;;;;;5044057;28;20215;-74
2023/05/05 09:53:37;;;;;;;3.40;1.90;;;;;;;;;;5042208;28;20175;-74
2023/05/05 09:56:02;;;;;;;2.93;2.27;;;;;;;;;;5044579;28;20252;-74
2023/05/05 09:58:28;;;;;;;3.83;2.30;;;;;;;;;;5046228;28;20184;-74
2023/05/05 10:00:54;;;;;;;3.97;2.50;;;;;;;;;;5046498;28;20200;-74
2023/05/05 10:03:20;;;;;;;6.27;3.03;;;;;;;;;;5039877;28;20197;-75
2023/05/05 10:05:55;;;;;;;4.20;2.40;;;;;;;;;;5049493;28;20177;-74
2023/05/05 10:08:22;;;;;;;3.27;2.03;;;;;;;;;;5043517;28;20169;-74
2023/05/05 10:10:50;;;;;;;2.47;2.27;;;;;;;;;;5047650;28;20185;-75
2023/05/05 10:13:17;;;;;;;5.77;2.87;;;;;;;;;;5059223;28;20200;-74
2023/05/05 10:15:43;;;;;;;3.27;2.17;;;;;;;;;;5060903;28;20204;-74
2023/05/05 10:18:09;;;;;;;2.00;1.90;;;;;;;;;;5042858;28;20181;-74
2023/05/05 10:20:35;;;;;;;2.87;2.47;;;;;;;;;;5040666;28;20188;-74
2023/05/05 10:23:01;;;;;;;5.60;3.20;;;;;;;;;;5039804;28;20209;-75
2023/05/05 10:25:32;;;;;;;3.60;3.30;;;;;;;;;;5049731;28;20178;-74
2023/05/05 10:28:01;;;;;;;3.80;3.50;;;;;;;;;;5060559;28;20285;-75
2023/05/05 10:30:33;;;;;;;6.43;3.63;;;;;;;;;;5052262;28;20280;-74
2023/05/05 10:33:10;;;;;;;4.17;3.77;;;;;;;;;;5040248;28;20227;-74
2023/05/05 10:35:39;;;;;;;3.90;3.60;;;;;;;;;;5045896;28;20180;-74
2023/05/05 10:38:07;;;;;;;3.87;3.57;;;;;;;;;;5043820;28;20193;-74
2023/05/05 10:40:32;;;;;;;13.43;4.73;;;;;;;;;;5044083;28;20211;-74
2023/05/05 10:42:58;;;;;;;4.07;3.77;;;;;;;;;;5046628;28;20209;-74
2023/05/05 10:45:23;;;;;;;3.80;3.50;;;;;;;;;;5044680;28;20198;-74
2023/05/05 10:47:49;;;;;;;4.03;3.20;;;;;;;;;;5043566;28;20181;-74
2023/05/05 10:50:15;;;;;;;3.40;3.10;;;;;;;;;;5049153;28;20253;-74
2023/05/05 10:52:43;;;;;;;3.27;2.97;;;;;;;;;;5047200;28;20175;-74
2023/05/05 10:55:35;;;;;;;3.93;3.60;;;;;;;;;;5047869;28;20209;-74
2023/05/05 10:58:00;;;;;;;3.30;3.07;;;;;;;;;;5048963;28;20209;-74
2023/05/05 11:00:49;;;;;;;6.20;3.50;;;;;;;;;;5046215;28;20178;-74
2023/05/05 11:03:15;;;;;;;3.37;3.07;;;;;;;;;;5028461;28;20209;-74
2023/05/05 11:05:59;;;;;;;6.50;3.77;;;;;;;;;;5039578;28;20213;-74
2023/05/05 11:08:25;;;;;;;3.27;2.63;;;;;;;;;;5049291;28;20176;-74
2023/05/05 11:10:50;;;;;;;3.10;2.80;;;;;;;;;;5040556;28;20192;-74
2023/05/05 11:13:16;;;;;;;2.60;2.40;;;;;;;;;;5047621;28;20246;-74
2023/05/05 11:15:41;;;;;;;3.00;2.73;;;;;;;;;;5049639;28;20216;-74
2023/05/05 11:18:06;;;;;;;2.77;2.57;;;;;;;;;;5045325;28;20170;-74
2023/05/05 11:20:34;;;;;;;3.17;2.83;;;;;;;;;;5051545;28;20270;-73
2023/05/05 11:23:03;;;;;;;3.70;2.40;;;;;;;;;;5056267;28;20268;-74
2023/05/05 11:25:40;;;;;;;2.57;2.37;;;;;;;;;;5056763;28;20175;-73
2023/05/05 11:28:09;;;;;;;3.33;2.53;;;;;;;;;;5045601;28;20174;-73
2023/05/05 11:30:35;;;;;;;3.03;2.50;;;;;;;;;;5046959;28;20222;-73
2023/05/05 11:33:19;;;;;;;6.33;3.17;;;;;;;;;;5047113;28;20179;-73
2023/05/05 11:35:57;;;;;;;2.70;2.30;;;;;;;;;;5056329;28;20267;-74
2023/05/05 11:38:29;;;;;;;3.10;2.30;;;;;;;;;;5049803;28;20176;-73
2023/05/05 11:40:58;;;;;;;3.57;2.53;;;;;;;;;;5044610;28;20180;-73
2023/05/05 11:43:23;;;;;;;4.17;2.70;;;;;;;;;;5043689;28;20180;-73
2023/05/05 11:45:48;;;;;;;6.67;5.17;;;;;;;;;;5043791;28;20191;-73
2023/05/05 11:48:23;;;;;;;3.27;2.70;;;;;;;;;;5049588;28;20182;-73
2023/05/05 11:50:49;;;;;;;4.70;2.90;;;;;;;;;;5045715;28;20179;-73
2023/05/05 11:53:14;;;;;;;2.90;2.60;;;;;;;;;;5037085;28;20203;-73
2023/05/05 11:55:39;;;;;;;3.77;2.47;;;;;;;;;;5043335;28;22138;-73
2023/05/05 11:58:16;;;;;;;4.20;2.90;;;;;;;;;;5042469;28;20251;-73
2023/05/05 12:00:41;;;;;;;4.67;3.20;;;;;;;;;;5031373;28;20200;-73
2023/05/05 12:03:07;;;;;;;4.17;3.20;;;;;;;;;;5050015;28;20250;-73
2023/05/05 12:05:33;;;;;;;3.50;3.20;;;;;;;;;;5044172;28;20180;-74
2023/05/05 12:07:58;;;;;;;3.97;3.13;;;;;;;;;;5039439;28;20181;-73
2023/05/05 12:10:24;;;;;;;4.30;3.07;;;;;;;;;;5050675;28;20238;-74
2023/05/05 12:12:50;;;;;;;3.30;3.00;;;;;;;;;;5048625;28;20196;-74
2023/05/05 12:15:15;;;;;;;4.70;3.07;;;;;;;;;;5049134;28;20185;-73
2023/05/05 12:17:43;;;;;;;4.47;3.67;;;;;;;;;;5050631;28;20307;-74
2023/05/05 12:20:10;;;;;;;2.40;2.30;;;;;;;;;;5046290;28;20179;-73
2023/05/05 12:22:35;;;;;;;2.67;2.30;;;;;;;;;;5050098;28;20183;-73
2023/05/05 12:25:02;;;;;;;3.33;2.30;;;;;;;;;;5050798;28;20177;-73
2023/05/05 12:27:27;;;;;;;3.30;2.53;;;;;;;;;;5056617;28;20180;-73
2023/05/05 12:29:56;;;;;;;2.77;2.43;;;;;;;;;;5063215;28;20311;-73
2023/05/05 12:32:25;;;;;;;3.77;3.23;;;;;;;;;;5040208;28;20187;-73
2023/05/05 12:34:56;;;;;;;3.43;2.40;;;;;;;;;;5039582;28;20267;-73
2023/05/05 12:37:22;;;;;;;7.23;2.70;;;;;;;;;;5044499;28;20280;-73
2023/05/05 12:39:48;;;;;;;5.63;3.00;;;;;;;;;;5048332;28;20184;-72
2023/05/05 12:42:13;;;;;;;4.30;2.83;;;;;;;;;;5050584;28;20172;-72
2023/05/05 12:44:39;;;;;;;4.57;3.13;;;;;;;;;;5041122;28;20187;-73
2023/05/05 12:47:05;;;;;;;2.97;2.67;;;;;;;;;;5047816;28;20183;-72
2023/05/05 12:49:32;;;;;;;3.43;2.80;;;;;;;;;;5052439;28;20198;-73
2023/05/05 12:51:59;;;;;;;4.37;2.77;;;;;;;;;;5047051;28;20185;-72
2023/05/05 12:54:28;;;;;;;3.03;2.77;;;;;;;;;;5052751;28;20185;-73
2023/05/05 12:56:55;;;;;;;3.40;2.87;;;;;;;;;;5049315;28;20199;-72
2023/05/05 12:59:20;;;;;;;4.80;3.30;;;;;;;;;;5038463;28;20200;-72
2023/05/05 13:01:52;;;;;;;3.50;2.60;;;;;;;;;;5038520;28;20175;-72
2023/05/05 13:04:18;;;;;;;5.17;3.67;;;;;;;;;;5057093;28;20195;-73
2023/05/05 13:06:44;;;;;;;4.37;3.20;;;;;;;;;;5042886;28;20175;-73
2023/05/05 13:09:25;;;;;;;3.73;2.90;;;;;;;;;;5048726;28;20182;-72
2023/05/05 13:11:51;;;;;;;3.57;3.27;;;;;;;;;;5041987;28;20224;-72
2023/05/05 13:14:16;;;;;;;5.53;3.70;;;;;;;;;;5043339;28;20217;-73
2023/05/05 13:16:41;;;;;;;3.43;2.87;;;;;;;;;;5046472;28;20196;-72
2023/05/05 13:19:07;;;;;;;3.37;3.00;;;;;;;;;;5050451;28;20380;-72
2023/05/05 13:21:32;;;;;;;5.43;2.87;;;;;;;;;;5047477;28;20201;-72
2023/05/05 13:23:57;;;;;;;4.93;3.57;;;;;;;;;;5046114;28;20264;-72
2023/05/05 13:26:23;;;;;;;4.57;2.83;;;;;;;;;;5052572;28;20170;-72
2023/05/05 13:28:49;;;;;;;6.10;3.80;;;;;;;;;;5046685;28;20192;-73
2023/05/05 13:31:14;;;;;;;3.30;3.00;;;;;;;;;;5052407;28;20261;-73
2023/05/05 13:33:39;;;;;;;4.73;3.20;;;;;;;;;;5050985;28;20197;-73
2023/05/05 13:36:04;;;;;;;6.23;3.57;;;;;;;;;;5048994;28;20242;-74
2023/05/05 13:38:33;;;;;;;5.47;3.27;;;;;;;;;;5049215;28;20274;-72
2023/05/05 13:40:59;;;;;;;4.93;4.07;;;;;;;;;;5046250;28;20229;-72
2023/05/05 13:43:25;;;;;;;4.03;3.37;;;;;;;;;;5048963;28;20194;-72
2023/05/05 13:45:50;;;;;;;4.27;3.10;;;;;;;;;;5041139;28;20195;-75
2023/05/05 13:48:15;;;;;;;3.73;3.27;;;;;;;;;;5047760;28;20184;-73
2023/05/05 13:50:40;;;;;;;3.20;2.90;;;;;;;;;;5049750;28;20181;-72
2023/05/05 13:53:06;;;;;;;6.93;3.97;;;;;;;;;;5047190;28;20210;-72
2023/05/05 13:55:31;;;;;;;5.13;3.47;;;;;;;;;;5041039;28;20193;-72
2023/05/05 13:57:56;;;;;;;9.30;3.60;;;;;;;;;;5044850;28;20177;-73
2023/05/05 14:00:21;;;;;;;6.00;4.77;;;;;;;;;;5061412;28;20184;-72
2023/05/05 14:02:47;;;;;;;4.80;3.30;;;;;;;;;;5045716;28;20297;-72
2023/05/05 14:05:12;;;;;;;5.37;3.60;;;;;;;;;;5040893;28;20210;-72
2023/05/05 14:07:37;;;;;;;5.37;3.93;;;;;;;;;;5041184;28;20195;-72
2023/05/05 14:10:03;;;;;;;5.03;3.73;;;;;;;;;;5054022;28;20243;-72
2023/05/05 14:12:28;;;;;;;4.57;4.07;;;;;;;;;;5044610;28;20188;-73
2023/05/05 14:14:53;;;;;;;4.77;3.40;;;;;;;;;;5047975;28;20216;-72
2023/05/05 14:17:18;;;;;;;6.90;4.07;;;;;;;;;;5041512;28;20204;-72
2023/05/05 14:19:44;;;;;;;5.10;3.73;;;;;;;;;;5040990;28;20189;-72
2023/05/05 14:22:09;;;;;;;4.67;4.03;;;;;;;;;;5051355;28;20180;-72
2023/05/05 14:24:34;;;;;;;5.77;4.30;;;;;;;;;;5042704;28;20220;-72
2023/05/05 14:27:01;;;;;;;4.30;3.60;;;;;;;;;;5044430;28;20196;-73
2023/05/05 14:29:27;;;;;;;5.40;3.63;;;;;;;;;;5041959;28;20252;-73
2023/05/05 14:31:52;;;;;;;4.43;3.90;;;;;;;;;;5050427;28;20189;-73
2023/05/05 14:34:17;;;;;;;4.90;4.40;;;;;;;;;;5051718;28;20188;-73
2023/05/05 14:36:42;;;;;;;6.77;4.20;;;;;;;;;;5051531;28;20205;-73
2023/05/05 14:39:07;;;;;;;4.97;4.30;;;;;;;;;;5051450;28;20192;-73